Time;durP1;ratioP1;P1;durP2;ratioP2;P2;SDS_P1;SDS_P2;PMS_P1;PMS_P2;Temp;Humidity;BMP_temperature;BMP_pressure;BME280_temperature;BME280_humidity;BME280_pressure;Samples;Min_cycle;Max_cycle;Signal;HPM_P1;HPM_P2
2021/10/06 00:01:54;;;;;;;1.50;0.63;;;11.30;99.90;;;9.69;96.32;100559.16;2569226;30;139421;-40
2021/10/06 00:04:21;;;;;;;3.92;1.02;;;11.20;99.90;;;9.66;96.83;100562.31;2566696;30;138525;-39
2021/10/06 00:06:49;;;;;;;3.25;0.90;;;11.20;99.90;;;9.73;96.55;100561.25;2570784;30;138294;-39
2021/10/06 00:09:17;;;;;;;3.88;1.30;;;11.20;99.90;;;9.75;96.45;100569.19;2567017;30;138077;-40
2021/10/06 00:11:46;;;;;;;3.17;1.20;;;11.20;99.90;;;9.74;95.79;100560.19;2569527;30;137736;-40
2021/10/06 00:14:14;;;;;;;;;;;11.20;99.90;;;9.82;95.49;100569.19;2567535;30;137324;-40
2021/10/06 00:16:42;;;;;;;6.50;1.13;;;11.30;99.90;;;9.80;94.57;100569.38;2569485;30;138185;-39
2021/10/06 00:19:09;;;;;;;;;;;11.30;99.90;;;9.75;94.78;100569.19;2569189;30;138151;-40
2021/10/06 00:21:37;;;;;;;4.97;1.10;;;11.30;99.90;;;9.67;95.00;100572.16;2570578;30;139039;-39
2021/10/06 00:24:05;;;;;;;2.58;0.90;;;11.20;99.90;;;9.62;95.29;100565.47;2571859;30;136958;-40
2021/10/06 00:26:35;;;;;;;5.38;0.88;;;11.20;99.90;;;9.58;95.43;100576.97;2569321;30;138227;-40
2021/10/06 00:29:07;;;;;;;5.13;1.30;;;11.10;99.90;;;9.57;95.41;100565.25;2570773;30;139283;-40
2021/10/06 00:31:35;;;;;;;2.67;0.90;;;11.10;99.90;;;9.51;95.17;100568.81;2568865;30;138272;-40
2021/10/06 00:34:03;;;;;;;;;;;11.10;99.90;;;9.49;95.36;100568.19;2570038;30;137923;-39
2021/10/06 00:36:30;;;;;;;4.07;1.05;;;11.00;99.90;;;9.57;94.89;100578.03;2571059;30;138095;-39
2021/10/06 00:39:00;;;;;;;2.75;0.90;;;11.10;99.90;;;9.58;94.73;100579.72;2569254;30;138690;-40
2021/10/06 00:41:28;;;;;;;3.00;1.00;;;11.10;99.90;;;9.54;94.88;100582.00;2569376;30;137338;-40
2021/10/06 00:43:55;;;;;;;5.40;1.08;;;11.00;99.90;;;9.54;94.69;100575.72;2570975;30;137784;-39
2021/10/06 00:46:23;;;;;;;3.08;0.77;;;11.00;99.90;;;9.52;94.74;100592.28;2568940;30;138389;-40
2021/10/06 00:48:51;;;;;;;3.47;0.82;;;11.10;99.90;;;9.48;95.00;100591.88;2569944;30;137300;-39
2021/10/06 00:51:20;;;;;;;4.38;1.05;;;11.00;99.90;;;9.49;94.79;100587.25;2569792;30;137353;-39
2021/10/06 00:53:47;;;;;;;2.97;0.98;;;11.00;99.90;;;9.41;95.50;100591.03;2571192;30;137516;-39
2021/10/06 00:56:18;;;;;;;4.15;1.00;;;10.90;99.90;;;9.33;95.59;100588.53;2569845;30;138253;-40
2021/10/06 00:58:46;;;;;;;2.83;0.98;;;10.90;99.90;;;9.27;95.69;100592.09;2572227;30;137533;-40
2021/10/06 01:01:15;;;;;;;2.33;1.00;;;10.90;99.90;;;9.23;95.91;100604.44;2569415;30;138296;-40
2021/10/06 01:03:43;;;;;;;3.25;1.00;;;10.80;99.90;;;9.28;96.11;100596.50;2566822;30;138198;-40
2021/10/06 01:06:11;;;;;;;4.68;1.02;;;10.80;99.90;;;9.34;96.17;100601.94;2569807;30;138232;-39
2021/10/06 01:08:39;;;;;;;4.28;0.88;;;10.80;99.90;;;9.33;96.12;100608.44;2570268;30;136733;-39
2021/10/06 01:11:08;;;;;;;;;;;10.80;99.90;;;9.30;96.05;100611.59;2568531;30;138457;-40
2021/10/06 01:13:37;;;;;;;4.93;1.17;;;10.80;99.90;;;9.29;95.50;100601.75;2569575;30;137643;-39
2021/10/06 01:16:05;;;;;;;3.78;1.30;;;10.80;99.90;;;9.27;96.07;100611.97;2568748;30;139104;-39
2021/10/06 01:18:33;;;;;;;3.22;1.00;;;10.80;99.90;;;9.31;96.64;100617.84;2566086;30;137783;-40
2021/10/06 01:21:29;;;;;;;4.25;1.20;;;10.80;99.90;;;9.33;95.77;100616.59;2569164;30;138260;-40
2021/10/06 01:23:57;;;;;;;4.50;0.93;;;10.90;99.90;;;9.30;95.92;100617.03;2566281;30;138051;-40
2021/10/06 01:26:25;;;;;;;5.07;1.13;;;10.80;99.90;;;9.32;96.11;100617.66;2568420;30;138265;-39
2021/10/06 01:28:54;;;;;;;5.45;1.23;;;10.80;99.90;;;9.27;96.21;100616.59;2567839;30;137546;-39
2021/10/06 01:31:28;;;;;;;2.45;0.98;;;10.80;99.90;;;9.25;96.57;100621.41;2568987;30;137172;-40
2021/10/06 01:33:56;;;;;;;4.63;1.00;;;10.80;99.90;;;9.30;96.61;100621.63;2569499;30;137355;-41
2021/10/06 01:36:23;;;;;;;3.55;1.00;;;10.80;99.90;;;9.30;96.59;100610.72;2570615;30;138410;-40
2021/10/06 01:38:51;;;;;;;4.05;0.98;;;10.80;99.90;;;9.36;96.07;100626.22;2568749;30;136952;-40
2021/10/06 01:41:18;;;;;;;4.18;1.20;;;10.80;99.90;;;9.41;95.59;100628.31;2569602;30;138902;-39
2021/10/06 01:43:46;;;;;;;4.90;1.02;;;10.90;99.90;;;9.35;95.37;100619.94;2568103;30;136755;-40
2021/10/06 01:46:16;;;;;;;5.65;1.10;;;10.90;99.90;;;9.43;95.25;100627.06;2571119;30;138460;-40
2021/10/06 01:48:44;;;;;;;5.47;1.17;;;10.90;99.90;;;9.39;95.46;100628.53;2574652;30;138091;-41
2021/10/06 01:51:11;;;;;;;2.83;0.90;;;10.90;99.90;;;9.34;95.67;100628.31;2568165;30;138340;-42
2021/10/06 01:53:40;;;;;;;2.75;0.95;;;10.80;99.90;;;9.39;95.85;100630.41;2568874;30;136594;-40
2021/10/06 01:56:08;;;;;;;4.43;1.27;;;10.90;99.90;;;9.37;95.71;100637.97;2568344;30;138190;-40
2021/10/06 01:58:36;;;;;;;7.32;1.30;;;10.90;99.90;;;9.41;95.38;100634.59;2568267;30;137021;-40
2021/10/06 02:01:04;;;;;;;3.65;1.10;;;10.90;99.90;;;9.46;95.18;100634.81;2568236;30;138845;-40
2021/10/06 02:03:32;;;;;;;3.47;1.05;;;10.90;99.90;;;9.52;95.15;100635.84;2566005;30;137062;-40
2021/10/06 02:06:00;;;;;;;5.97;1.38;;;11.00;99.90;;;9.58;94.71;100635.03;2567930;30;138416;-40
2021/10/06 02:08:27;;;;;;;2.63;1.17;;;11.00;99.90;;;9.56;94.63;100625.38;2568562;30;137697;-40
2021/10/06 02:10:55;;;;;;;4.38;1.35;;;11.00;99.90;;;9.60;94.85;100616.59;2569268;30;138436;-40
2021/10/06 02:13:22;;;;;;;4.60;1.38;;;11.10;99.90;;;9.64;94.76;100623.28;2567777;30;137201;-40
2021/10/06 02:15:50;;;;;;;4.43;1.20;;;11.10;99.90;;;9.70;94.35;100631.66;2567194;30;138232;-40
2021/10/06 02:18:17;;;;;;;4.38;1.27;;;11.10;99.90;;;9.71;94.10;100633.34;2568169;30;138292;-40
2021/10/06 02:20:45;;;;;;;4.60;1.10;;;11.20;99.90;;;9.74;94.22;100639.19;2569601;30;136746;-40
2021/10/06 02:23:13;;;;;;;;;;;11.20;99.90;;;9.78;94.13;100643.19;2566728;30;138261;-40
2021/10/06 02:25:41;;;;;;;3.63;1.10;;;11.20;99.90;;;9.87;93.52;100637.50;2567824;30;138285;-40
2021/10/06 02:28:08;;;;;;;;;;;11.30;99.90;;;9.91;92.76;100634.13;2569085;30;137529;-40
2021/10/06 02:30:36;;;;;;;3.50;1.02;;;11.30;99.90;;;9.98;92.01;100638.72;2569302;30;137408;-40
2021/10/06 02:33:04;;;;;;;;;;;11.40;99.90;;;9.98;91.77;100638.72;2569408;30;138194;-40
2021/10/06 02:35:31;;;;;;;4.50;1.10;;;11.40;99.90;;;9.96;92.28;100636.25;2567361;30;138999;-40
2021/10/06 02:37:59;;;;;;;5.00;1.23;;;11.40;99.90;;;9.98;91.97;100636.84;2568195;30;136809;-40
2021/10/06 02:40:27;;;;;;;6.47;1.30;;;11.40;99.90;;;9.98;91.80;100644.19;2566828;30;138751;-40
2021/10/06 02:42:54;;;;;;;7.63;1.65;;;11.40;99.90;;;9.97;92.04;100648.81;2568819;30;137596;-40
2021/10/06 02:45:22;;;;;;;8.13;1.42;;;11.40;99.90;;;9.98;92.39;100644.19;2567292;30;138169;-40
2021/10/06 02:47:50;;;;;;;;;;;11.40;99.90;;;9.99;91.70;100643.13;2567436;30;137118;-40
2021/10/06 02:50:22;;;;;;;6.18;1.30;;;11.40;99.90;;;10.00;91.79;100647.53;2569131;30;138382;-40
2021/10/06 02:52:51;;;;;;;7.50;1.40;;;11.50;99.90;;;9.98;91.22;100644.19;2568180;30;137616;-40
2021/10/06 02:55:19;;;;;;;6.63;1.27;;;11.40;99.90;;;9.96;91.22;100652.59;2566828;30;138383;-40
2021/10/06 02:57:47;;;;;;;4.43;1.30;;;11.40;99.90;;;9.89;90.83;100632.66;2568096;30;136970;-41
2021/10/06 03:00:16;;;;;;;4.03;1.08;;;11.40;99.90;;;9.83;91.28;100648.00;2565102;30;138409;-40
2021/10/06 03:02:43;;;;;;;4.93;1.33;;;11.40;99.90;;;9.87;91.39;100654.69;2568249;30;138276;-40
2021/10/06 03:05:12;;;;;;;;;;;11.40;99.90;;;9.84;92.01;100649.69;2567704;30;138008;-41
2021/10/06 03:07:40;;;;;;;7.65;1.40;;;11.40;99.90;;;9.82;92.01;100640.88;2569092;30;137901;-41
2021/10/06 03:10:11;;;;;;;3.40;0.93;;;11.30;99.90;;;9.82;92.18;100646.31;2567097;30;137453;-40
2021/10/06 03:12:39;;;;;;;4.47;1.30;;;11.30;99.90;;;9.86;92.01;100650.28;2567365;30;137076;-40
2021/10/06 03:15:09;;;;;;;4.55;1.30;;;11.30;99.90;;;9.79;92.14;100647.56;2567823;30;138565;-41
2021/10/06 03:17:37;;;;;;;7.63;1.17;;;11.30;99.90;;;9.85;91.64;100650.50;2568395;30;137680;-40
2021/10/06 03:20:07;;;;;;;3.65;1.10;;;11.30;99.90;;;9.80;92.06;100642.94;2567031;30;139127;-41
2021/10/06 03:22:35;;;;;;;2.53;0.90;;;11.30;99.90;;;9.81;92.19;100660.16;2568759;30;137600;-41
2021/10/06 03:25:04;;;;;;;3.40;1.13;;;11.30;99.90;;;9.79;92.24;100649.44;2566524;30;137744;-40
2021/10/06 03:27:33;;;;;;;6.45;1.50;;;11.30;99.90;;;9.83;91.80;100655.31;2567136;30;138141;-41
2021/10/06 03:30:01;;;;;;;4.57;1.25;;;11.30;99.90;;;9.88;91.96;100652.78;2568102;30;139003;-40
2021/10/06 03:32:28;;;;;;;;;;;11.30;99.90;;;9.86;91.10;100660.34;2567513;30;137552;-40
2021/10/06 03:34:56;;;;;;;5.38;1.08;;;11.30;99.90;;;9.87;91.55;100654.69;2566843;30;137952;-40
2021/10/06 03:37:23;;;;;;;5.20;1.23;;;11.30;99.90;;;9.95;91.27;100661.81;2566306;30;137894;-40
2021/10/06 03:39:51;;;;;;;5.22;1.25;;;11.40;99.90;;;9.92;90.17;100645.88;2567456;30;138851;-41
2021/10/06 03:42:18;;;;;;;5.63;1.13;;;11.40;99.90;;;9.97;91.01;100661.59;2568409;30;138393;-40
2021/10/06 03:44:46;;;;;;;3.78;1.08;;;11.40;99.90;;;9.94;90.55;100671.00;2567195;30;137492;-40
2021/10/06 03:47:13;;;;;;;6.47;1.35;;;11.40;99.90;;;10.02;89.85;100668.09;2568824;30;137368;-40
2021/10/06 03:49:41;;;;;;;5.95;1.00;;;11.50;99.90;;;9.97;90.26;100672.50;2568088;30;137226;-41
2021/10/06 03:52:08;;;;;;;5.10;1.30;;;11.40;99.90;;;9.96;90.41;100679.84;2568184;30;137454;-40
2021/10/06 03:54:36;;;;;;;7.47;1.27;;;11.40;99.90;;;9.98;89.73;100679.63;2564903;30;137745;-40
2021/10/06 03:57:03;;;;;;;3.08;1.08;;;11.40;99.90;;;9.93;90.30;100678.38;2569002;30;136898;-40
2021/10/06 03:59:31;;;;;;;5.80;1.45;;;11.40;99.90;;;9.97;90.62;100686.13;2567697;30;138204;-40
2021/10/06 04:01:58;;;;;;;5.82;1.15;;;11.40;99.90;;;10.00;89.97;100686.53;2568724;30;137030;-40
2021/10/06 04:04:26;;;;;;;4.93;1.58;;;11.40;99.90;;;10.04;89.83;100678.75;2568652;30;138181;-41
2021/10/06 04:06:53;;;;;;;4.07;1.52;;;11.50;99.90;;;10.02;89.60;100679.00;2568170;30;138031;-40
2021/10/06 04:09:21;;;;;;;4.18;1.05;;;11.50;99.90;;;9.99;88.95;100678.56;2567270;30;139005;-40
2021/10/06 04:11:48;;;;;;;6.13;1.20;;;11.50;99.90;;;10.04;89.72;100689.66;2567190;30;137566;-41
2021/10/06 04:14:16;;;;;;;3.85;1.00;;;11.50;99.90;;;10.08;89.14;100678.13;2568181;30;138538;-41
2021/10/06 04:16:43;;;;;;;4.03;1.13;;;11.50;99.90;;;10.07;88.92;100681.06;2567566;30;137688;-40
2021/10/06 04:19:11;;;;;;;7.13;1.35;;;11.50;99.90;;;9.98;89.64;100677.75;2568949;30;138256;-40
2021/10/06 04:21:38;;;;;;;4.70;1.23;;;11.50;99.90;;;9.97;89.58;100686.97;2567232;30;137572;-40
2021/10/06 04:24:06;;;;;;;5.80;1.13;;;11.50;99.90;;;10.01;88.56;100695.53;2568418;30;137493;-40
2021/10/06 04:26:34;;;;;;;7.90;1.30;;;11.50;99.90;;;10.04;88.56;100697.84;2566294;30;137468;-40
2021/10/06 04:29:02;;;;;;;4.05;1.10;;;11.50;99.90;;;10.00;88.31;100702.03;2568216;30;137151;-40
2021/10/06 04:31:29;;;;;;;4.90;1.42;;;11.50;99.90;;;9.99;88.57;100695.75;2568321;30;137153;-41
2021/10/06 04:33:57;;;;;;;3.20;1.10;;;11.40;99.90;;;10.03;89.09;100705.19;2565904;30;139002;-40
2021/10/06 04:36:24;;;;;;;4.72;0.95;;;11.50;99.90;;;10.00;88.39;100708.34;2568320;30;138026;-40
2021/10/06 04:38:52;;;;;;;5.93;1.77;;;11.50;99.90;;;10.00;89.45;100707.50;2566212;30;138603;-40
2021/10/06 04:41:20;;;;;;;4.00;1.13;;;11.50;99.90;;;10.05;88.48;100711.28;2568833;30;136656;-41
2021/10/06 04:43:47;;;;;;;4.13;1.38;;;11.50;99.90;;;10.04;88.08;100712.31;2566388;30;138189;-40
2021/10/06 04:46:18;;;;;;;3.65;1.00;;;11.50;99.90;;;10.06;88.39;100718.41;2566372;30;137566;-40
2021/10/06 04:48:47;;;;;;;4.65;1.33;;;11.50;99.90;;;10.11;88.57;100720.50;2568075;30;139880;-40
2021/10/06 04:51:15;;;;;;;4.43;1.40;;;11.60;99.90;;;10.09;87.74;100714.41;2568629;30;136650;-40
2021/10/06 04:53:42;;;;;;;;;;;11.50;99.90;;;10.07;88.59;100724.66;2566746;30;138531;-40
2021/10/06 04:56:10;;;;;;;4.38;1.35;;;11.50;99.90;;;10.07;88.43;100713.75;2567500;30;137026;-41
2021/10/06 04:58:38;;;;;;;4.15;1.10;;;11.50;99.90;;;10.07;88.39;100713.75;2567077;30;138018;-40
2021/10/06 05:01:05;;;;;;;6.22;1.40;;;11.50;99.90;;;10.10;88.96;100724.28;2567024;30;136833;-40
2021/10/06 05:03:33;;;;;;;4.65;1.00;;;11.60;99.90;;;10.04;88.62;100720.50;2567772;30;138212;-41
2021/10/06 05:06:00;;;;;;;6.45;1.20;;;11.50;99.90;;;10.07;88.42;100721.94;2568336;30;138459;-40
2021/10/06 05:08:28;;;;;;;2.28;0.88;;;11.50;99.90;;;10.07;87.90;100725.53;2567824;30;137470;-40
2021/10/06 05:10:56;;;;;;;5.10;0.82;;;11.50;99.90;;;10.18;87.39;100728.63;2566776;30;137761;-40
2021/10/06 05:13:23;;;;;;;3.53;1.13;;;11.60;99.90;;;10.14;87.24;100730.97;2567196;30;138721;-40
2021/10/06 05:15:51;;;;;;;3.38;0.93;;;11.60;99.90;;;10.12;86.80;100715.88;2565492;30;137467;-40
2021/10/06 05:18:18;;;;;;;2.60;1.02;;;11.60;99.90;;;10.12;87.26;100729.50;2567034;30;138485;-40
2021/10/06 05:20:46;;;;;;;6.15;1.10;;;11.60;99.90;;;10.06;87.15;100728.44;2566236;30;137903;-41
2021/10/06 05:23:14;;;;;;;4.85;1.23;;;11.60;99.90;;;10.11;87.50;100731.41;2567870;30;137119;-41
2021/10/06 05:25:42;;;;;;;4.38;1.17;;;11.50;99.90;;;10.10;86.85;100739.78;2567029;30;137105;-40
2021/10/06 05:28:09;;;;;;;6.78;1.17;;;11.50;99.90;;;10.08;87.01;100745.47;2566750;30;138969;-40
2021/10/06 05:30:37;;;;;;;3.97;0.80;;;11.60;99.90;;;10.08;87.66;100742.72;2567878;30;137530;-40
2021/10/06 05:33:05;;;;;;;8.10;1.20;;;11.50;99.90;;;9.96;87.84;100730.78;2568416;30;137592;-40
2021/10/06 05:35:33;;;;;;;5.82;1.20;;;11.50;99.90;;;10.03;87.94;100739.78;2568324;30;137249;-40
2021/10/06 05:38:01;;;;;;;3.38;1.20;;;11.50;99.90;;;10.02;87.77;100749.00;2567933;30;139178;-40
2021/10/06 05:40:28;;;;;;;8.07;1.30;;;11.50;99.90;;;10.07;88.00;100744.59;2567244;30;138306;-41
2021/10/06 05:42:56;;;;;;;6.85;1.52;;;11.50;99.90;;;10.09;87.68;100749.84;2568678;30;138329;-40
2021/10/06 05:45:24;;;;;;;3.28;1.15;;;11.50;99.90;;;10.02;87.10;100736.22;2568641;30;136617;-40
2021/10/06 05:47:51;;;;;;;4.20;0.90;;;11.50;99.90;;;10.10;86.96;100745.22;2566472;30;139199;-40
2021/10/06 05:50:19;;;;;;;2.80;1.27;;;11.50;99.90;;;10.13;86.89;100755.69;2567864;30;138122;-41
2021/10/06 05:52:47;;;;;;;4.90;0.90;;;11.60;99.90;;;10.21;86.44;100758.19;2566988;30;139240;-40
2021/10/06 05:55:14;;;;;;;3.70;1.00;;;11.60;99.90;;;10.20;86.27;100746.47;2566525;30;138520;-40
2021/10/06 05:57:42;;;;;;;4.50;1.00;;;11.60;99.90;;;10.20;86.70;100756.53;2564092;30;138005;-40
2021/10/06 06:00:10;;;;;;;4.05;1.33;;;11.60;99.90;;;10.26;87.15;100749.41;2567848;30;137703;-41
2021/10/06 06:02:47;;;;;;;4.72;1.10;;;11.70;99.90;;;10.22;88.46;100744.38;2567882;30;136789;-40
2021/10/06 06:05:17;;;;;;;4.18;1.15;;;11.60;99.90;;;10.22;88.63;100755.28;2567007;30;137631;-40
2021/10/06 06:07:45;;;;;;;4.50;1.10;;;11.60;99.90;;;10.22;89.41;100762.63;2566654;30;138722;-40
2021/10/06 06:10:13;;;;;;;;;;;11.60;99.90;;;10.19;90.68;100760.31;2567402;30;138493;-40
